createdAt,value
2022-12-22T02:27:07.476Z,99281.78
2022-12-22T02:29:56.360Z,99308.91
2022-12-22T02:32:42.875Z,99307.44
2022-12-22T02:35:32.917Z,99292.00
2022-12-22T02:38:40.232Z,99292.72
2022-12-22T02:41:35.828Z,99278.91
2022-12-22T07:42:09.982Z,99242.28
2022-12-22T07:44:36.658Z,99245.47
2022-12-22T07:47:03.248Z,99240.06
2022-12-22T07:49:48.313Z,99236.59
2022-12-22T07:52:14.922Z,99222.44
2022-12-22T07:54:42.402Z,99233.31
2022-12-22T07:57:09.146Z,99237.47
2022-12-22T07:59:35.758Z,99224.13
2022-12-22T08:02:02.325Z,99230.88
2022-12-22T08:04:29.020Z,99226.41
2022-12-22T08:06:55.777Z,99242.22
2022-12-22T08:09:23.032Z,99239.09
2022-12-22T08:11:50.246Z,99242.25
2022-12-22T08:14:17.005Z,99242.72
2022-12-22T08:16:43.766Z,99239.44
2022-12-22T08:19:10.372Z,99244.72
2022-12-22T08:21:36.980Z,99238.75
2022-12-22T08:24:03.604Z,99244.84
2022-12-22T08:26:42.284Z,99243.38
2022-12-22T08:29:13.525Z,99233.66
2022-12-22T08:31:40.858Z,99224.41
2022-12-22T08:34:09.627Z,99235.28
2022-12-22T08:36:40.205Z,99239.56
2022-12-22T08:39:07.591Z,99249.28
2022-12-22T08:41:50.053Z,99244.34
2022-12-22T08:44:40.400Z,99239.88
2022-12-22T08:47:10.186Z,99244.16
2022-12-22T08:49:41.608Z,99246.47
2022-12-22T08:52:11.598Z,99241.19
2022-12-22T08:54:41.097Z,99244.47
2022-12-22T08:57:07.650Z,99245.28
2022-12-22T08:59:34.304Z,99245.09
2022-12-22T09:02:05.147Z,99232.88
2022-12-22T09:04:33.177Z,99234.47
2022-12-22T09:07:02.471Z,99231.28
2022-12-22T09:09:34.429Z,99237.22
2022-12-22T09:12:02.227Z,99241.00
2022-12-22T09:14:29.711Z,99239.34
2022-12-22T09:16:56.659Z,99245.94
2022-12-22T09:19:23.295Z,99249.56
2022-12-22T09:21:49.929Z,99253.00
2022-12-22T09:24:16.509Z,99243.22
2022-12-22T09:26:43.132Z,99242.50
2022-12-22T09:29:09.860Z,99236.84
2022-12-22T09:31:36.814Z,99233.69
2022-12-22T09:34:03.553Z,99228.88
2022-12-22T09:36:31.735Z,99243.38
2022-12-22T09:38:58.371Z,99228.31
2022-12-22T09:41:32.489Z,99222.28
2022-12-22T09:44:06.623Z,99217.66
2022-12-22T09:46:35.495Z,99216.78
2022-12-22T09:49:02.670Z,99210.53
2022-12-22T09:51:29.944Z,99189.88
2022-12-22T09:54:00.419Z,99189.16
2022-12-22T09:56:28.196Z,99174.78
2022-12-22T09:58:55.237Z,99183.47
2022-12-22T10:01:31.035Z,99177.50
2022-12-22T10:04:09.032Z,99160.06
2022-12-22T10:06:41.992Z,99164.69
2022-12-22T10:09:48.098Z,99167.69
2022-12-22T10:12:07.338Z,99166.84
2022-12-22T10:14:39.310Z,99160.22
2022-12-22T10:17:32.373Z,99150.94
2022-12-22T10:20:22.784Z,99146.84
2022-12-22T10:22:50.664Z,99139.97
2022-12-22T10:25:45.032Z,99129.03
2022-12-22T10:28:21.972Z,99139.78
2022-12-22T10:30:48.560Z,99142.94
2022-12-22T10:33:17.333Z,99139.78
2022-12-22T10:35:52.586Z,99152.22
2022-12-22T10:38:22.111Z,99147.41
2022-12-22T10:40:56.665Z,99146.19
2022-12-22T10:43:31.843Z,99137.88
2022-12-22T10:45:59.046Z,99141.56
2022-12-22T10:48:28.090Z,99153.28
2022-12-22T10:50:55.398Z,99147.53
2022-12-22T10:53:22.039Z,99154.34
2022-12-22T10:56:05.352Z,99157.69
2022-12-22T10:58:33.513Z,99148.19
2022-12-22T11:01:03.588Z,99147.19
2022-12-22T11:03:31.529Z,99134.94
2022-12-22T11:05:59.340Z,99129.97
2022-12-22T11:08:26.443Z,99125.28
2022-12-22T11:11:07.937Z,99133.03
2022-12-22T11:14:26.158Z,99131.56
2022-12-22T11:17:00.683Z,99112.06
2022-12-22T11:19:58.786Z,99114.25
2022-12-22T11:22:35.025Z,99094.63
2022-12-22T11:25:31.676Z,99087.69
2022-12-22T11:28:17.023Z,99099.75
2022-12-22T11:31:11.339Z,99100.00
2022-12-22T11:33:59.249Z,99092.91
2022-12-22T11:36:59.126Z,99091.78
2022-12-22T11:39:36.060Z,99075.16
2022-12-22T11:42:20.849Z,99082.69
2022-12-22T11:45:11.912Z,99062.31
2022-12-22T11:48:01.939Z,99064.78
2022-12-22T11:51:01.186Z,99044.47
2022-12-22T11:53:52.021Z,99045.38
2022-12-22T11:56:28.202Z,99032.97
2022-12-22T11:59:01.253Z,99042.19
2022-12-22T12:01:40.355Z,99051.00
2022-12-22T12:04:39.266Z,99053.88
2022-12-22T12:07:13.304Z,99069.56
2022-12-22T12:10:04.396Z,99075.19
2022-12-22T12:12:46.376Z,99079.91
2022-12-22T12:15:16.324Z,99085.53
2022-12-22T12:18:19.952Z,99077.22
2022-12-22T12:20:52.724Z,99079.69
2022-12-22T12:23:50.226Z,99058.16
2022-12-22T12:26:31.514Z,99048.94
2022-12-22T12:29:01.370Z,99038.38
2022-12-22T12:31:33.852Z,99025.06
2022-12-22T12:34:02.234Z,99019.16
2022-12-22T12:36:42.077Z,98997.44
2022-12-22T12:39:20.887Z,98992.38
2022-12-22T12:41:47.680Z,98977.75
2022-12-22T12:44:23.699Z,98960.31
2022-12-22T12:46:50.513Z,98959.53
2022-12-22T12:49:35.865Z,98961.66
2022-12-22T12:52:09.247Z,98957.50
2022-12-22T12:54:41.435Z,98948.28
2022-12-22T12:57:23.416Z,98946.34
2022-12-22T12:59:52.631Z,98949.81
2022-12-22T13:02:28.841Z,98959.50
2022-12-22T13:05:10.564Z,98950.56
2022-12-22T13:08:11.247Z,98946.69
2022-12-22T13:11:05.726Z,98945.84
2022-12-22T13:13:33.613Z,98940.97
2022-12-22T13:16:00.374Z,98934.91
2022-12-22T13:18:29.735Z,98930.81
2022-12-22T13:21:18.533Z,98930.38
2022-12-22T13:24:24.572Z,98929.44
2022-12-22T13:26:44.358Z,98940.22
2022-12-22T13:29:19.076Z,98931.00
2022-12-22T13:31:49.910Z,98930.00
2022-12-22T13:34:22.768Z,98938.56
2022-12-22T13:36:50.935Z,98933.91
2022-12-22T13:39:17.554Z,98928.34
2022-12-22T13:41:48.800Z,98926.34
2022-12-22T13:44:18.383Z,98937.00
2022-12-22T13:46:45.296Z,98932.72
2022-12-22T13:49:30.195Z,98925.34
2022-12-22T13:52:05.664Z,98926.69
2022-12-22T13:54:33.739Z,98934.50
2022-12-22T13:57:00.780Z,98931.56
2022-12-22T13:59:41.367Z,98938.22
2022-12-22T14:11:04.769Z,98944.03
2022-12-22T14:13:32.901Z,98951.41
2022-12-22T14:16:05.173Z,98940.59
2022-12-22T14:18:33.323Z,98947.25
2022-12-22T14:21:00.366Z,98943.34
2022-12-22T14:23:32.736Z,98941.34
2022-12-22T14:26:01.773Z,98952.00
2022-12-22T14:28:39.764Z,98943.06
2022-12-22T14:31:07.415Z,98953.53
2022-12-22T14:33:34.851Z,98955.81
2022-12-22T14:36:24.621Z,98965.47
2022-12-22T14:38:54.072Z,98957.56
2022-12-22T14:41:56.071Z,98958.38
2022-12-22T14:44:37.731Z,98938.16
2022-12-22T14:47:19.610Z,98936.47
2022-12-22T14:49:52.181Z,98921.06
2022-12-22T14:52:21.457Z,98911.78
2022-12-22T14:54:52.438Z,98913.03
2022-12-22T14:57:31.107Z,98890.81
2022-12-22T14:59:59.831Z,98885.25
2022-12-22T15:02:39.706Z,98877.50
2022-12-22T15:05:29.235Z,98877.94
2022-12-22T15:08:07.093Z,98885.47
2022-12-22T15:10:42.090Z,98876.53
2022-12-22T15:13:35.159Z,98903.03
2022-12-22T15:16:02.245Z,98912.50
2022-12-22T15:18:29.247Z,98888.16
2022-12-22T15:20:56.843Z,98904.66
2022-12-22T15:23:24.173Z,98902.72
2022-12-22T15:25:50.931Z,98912.66
2022-12-22T15:28:17.962Z,98920.03
2022-12-22T15:30:44.926Z,98930.69
2022-12-22T15:33:13.659Z,98932.84
2022-12-22T15:35:40.910Z,98928.28
2022-12-22T15:38:13.174Z,98944.56
2022-12-22T15:40:39.749Z,98955.59
2022-12-22T15:43:17.339Z,98977.00
2022-12-22T15:45:54.064Z,98990.78
2022-12-22T15:48:33.018Z,98996.88
2022-12-22T15:51:00.364Z,98971.81
2022-12-22T15:53:27.077Z,98980.91
2022-12-22T15:55:55.001Z,98999.19
2022-12-22T15:58:23.758Z,98989.03
2022-12-22T16:00:50.443Z,98991.81
2022-12-22T16:03:17.186Z,98991.25
2022-12-22T16:05:45.038Z,98990.16
2022-12-22T16:08:18.381Z,99004.22
2022-12-22T16:10:45.604Z,98987.72
2022-12-22T16:13:13.828Z,98984.25
2022-12-22T16:15:40.793Z,98988.72
2022-12-22T16:18:07.468Z,98989.72
2022-12-22T16:20:39.354Z,98980.78
2022-12-22T16:23:07.502Z,98986.34
2022-12-22T16:25:36.057Z,98984.59
2022-12-22T16:28:03.795Z,99006.41
2022-12-22T16:30:33.467Z,98993.63
2022-12-22T16:33:00.688Z,98978.72
2022-12-22T16:35:29.338Z,98983.31
2022-12-22T16:37:58.362Z,98973.53
2022-12-22T16:40:25.924Z,98972.66
2022-12-22T16:45:44.877Z,98980.34
2022-12-22T16:48:34.345Z,98978.41
2022-12-22T16:51:01.078Z,98962.16
2022-12-22T16:53:29.045Z,98968.72
2022-12-22T16:55:56.211Z,98966.63
2022-12-22T16:58:22.773Z,98960.47
2022-12-22T17:00:49.405Z,98965.06
2022-12-22T17:03:19.838Z,98966.50
2022-12-22T17:05:49.238Z,98962.84
2022-12-22T17:08:25.492Z,98964.63
2022-12-22T17:10:53.373Z,98967.41
2022-12-22T17:13:20.344Z,98958.25
2022-12-22T17:15:47.002Z,98959.16
2022-12-22T17:18:19.240Z,98948.63
2022-12-22T17:20:47.993Z,98937.03
2022-12-22T17:23:33.808Z,98933.19
2022-12-22T17:26:03.125Z,98928.34
2022-12-22T17:28:29.753Z,98915.75
2022-12-22T17:30:56.566Z,98914.81
2022-12-22T17:33:25.917Z,98902.84
2022-12-22T18:02:29.121Z,98907.75
2022-12-22T18:05:19.214Z,98884.69
2022-12-22T18:08:16.729Z,98896.50
2022-12-22T18:10:44.209Z,98886.97
2022-12-22T18:13:23.875Z,98910.97
2022-12-22T18:18:46.229Z,98916.19
2022-12-22T18:27:32.643Z,98950.53
